Time;durP1;ratioP1;P1;durP2;ratioP2;P2;SDS_P1;SDS_P2;PMS_P1;PMS_P2;Temp;Humidity;BMP_temperature;BMP_pressure;BME280_temperature;BME280_humidity;BME280_pressure;Samples;Min_cycle;Max_cycle;Signal;HPM_P1;HPM_P2
2022/06/07 00:01:56;;;;;;;9.02;8.13;;;;;;;15.28;100.00;99574.06;5016375;28;20471;-54
2022/06/07 00:04:41;;;;;;;10.02;8.35;;;;;;;15.27;100.00;99559.13;5009580;28;20050;-53
2022/06/07 00:07:27;;;;;;;9.60;8.45;;;;;;;15.16;100.00;99557.03;5015719;28;20041;-53
2022/06/07 00:10:11;;;;;;;8.13;7.30;;;;;;;15.23;100.00;99560.22;5011654;28;20057;-53
2022/06/07 00:12:56;;;;;;;9.57;7.57;;;;;;;15.22;100.00;99558.53;5011975;28;20398;-53
2022/06/07 00:15:41;;;;;;;8.30;7.28;;;;;;;15.33;100.00;99558.84;5014410;28;20900;-53
2022/06/07 00:18:26;;;;;;;10.48;8.15;;;;;;;15.34;100.00;99555.28;5012362;28;20557;-53
2022/06/07 00:21:10;;;;;;;9.25;7.38;;;;;;;15.27;100.00;99561.78;5015352;28;20542;-53
2022/06/07 00:24:00;;;;;;;11.82;7.95;;;;;;;15.33;100.00;99561.47;5012636;28;20042;-53
2022/06/07 00:26:45;;;;;;;8.35;7.45;;;;;;;15.33;100.00;99556.22;5013223;28;20068;-53
2022/06/07 00:29:30;;;;;;;8.65;7.43;;;;;;;15.40;100.00;99556.75;5010624;28;20092;-53
2022/06/07 00:32:17;;;;;;;10.00;7.78;;;;;;;15.39;100.00;99552.41;5013292;28;20095;-53
2022/06/07 00:35:02;;;;;;;9.63;8.55;;;;;;;15.45;100.00;99560.03;5007526;28;20049;-53
2022/06/07 00:37:48;;;;;;;8.60;7.70;;;;;;;15.43;100.00;99560.09;5013806;28;20057;-53
2022/06/07 00:40:33;;;;;;;9.18;8.07;;;;;;;15.31;100.00;99565.16;5016007;28;20092;-52
2022/06/07 00:43:22;;;;;;;10.82;8.82;;;;;;;15.39;100.00;99566.47;5013067;28;20061;-53
2022/06/07 00:46:09;;;;;;;9.65;7.70;;;;;;;15.45;100.00;99560.03;5011636;28;20439;-53
2022/06/07 00:48:54;;;;;;;11.45;10.00;;;;;;;15.13;100.00;99551.91;5008207;28;20072;-53
2022/06/07 00:51:39;;;;;;;10.95;8.20;;;;;;;15.42;100.00;99547.00;5009697;28;20082;-52
2022/06/07 00:54:27;;;;;;;10.15;8.80;;;;;;;15.53;100.00;99539.38;5000660;28;20053;-53
2022/06/07 00:57:17;;;;;;;8.80;7.90;;;;;;;15.59;100.00;99531.16;5010628;28;20508;-53
2022/06/07 01:00:09;;;;;;;10.00;8.02;;;;;;;15.39;100.00;99528.66;5003700;28;20049;-53
2022/06/07 01:02:55;;;;;;;7.93;7.13;;;;;;;15.48;100.00;99525.59;5003026;28;20034;-53
2022/06/07 01:05:40;;;;;;;8.85;7.95;;;;;;;15.40;100.00;99512.78;5014838;28;20056;-53
2022/06/07 01:11:31;;;;;;;12.60;8.88;;;;;;;15.50;100.00;99515.81;5013322;28;20060;-53
2022/06/07 01:14:15;;;;;;;8.90;7.45;;;;;;;15.67;100.00;99522.06;5010327;28;20396;-53
2022/06/07 01:17:00;;;;;;;9.50;8.50;;;;;;;15.56;100.00;99525.19;5003684;28;20072;-53
2022/06/07 01:19:46;;;;;;;10.55;9.27;;;;;;;15.60;100.00;99524.97;5012863;28;20537;-53
2022/06/07 01:22:31;;;;;;;9.80;8.80;;;;;;;15.49;100.00;99514.09;5011326;28;20096;-53
2022/06/07 01:25:16;;;;;;;10.68;9.48;;;;;;;15.69;100.00;99514.91;5011562;28;20049;-53
2022/06/07 01:28:01;;;;;;;10.65;8.38;;;;;;;15.74;100.00;99508.47;5009298;28;20072;-53
2022/06/07 01:30:45;;;;;;;8.77;7.88;;;;;;;15.75;100.00;99518.09;5019850;28;20092;-53
2022/06/07 01:33:30;;;;;;;9.13;7.25;;;;;;;15.58;100.00;99516.28;5006758;28;20076;-53
2022/06/07 01:36:16;;;;;;;9.18;8.32;;;;;;;15.58;100.00;99510.16;5016214;28;20042;-53
2022/06/07 01:42:05;;;;;;;7.20;6.50;;;;;;;15.67;100.00;99515.00;5007431;28;20038;-53
2022/06/07 01:44:52;;;;;;;7.60;6.88;;;;;;;15.70;100.00;99514.84;5006209;28;20050;-54
2022/06/07 01:47:38;;;;;;;6.75;6.15;;;;;;;15.81;100.00;99512.50;5004499;28;20048;-53
2022/06/07 01:50:23;;;;;;;7.18;6.47;;;;;;;15.75;100.00;99520.72;5006741;28;20056;-53
2022/06/07 01:53:09;;;;;;;5.97;5.47;;;;;;;15.71;100.00;99510.41;5003295;28;20134;-53
2022/06/07 01:56:13;;;;;;;7.85;7.05;;;;;;;15.72;100.00;99507.69;5005387;28;20464;-53
2022/06/07 01:58:59;;;;;;;8.25;5.38;;;;;;;15.68;100.00;99498.22;5017622;28;20100;-53
2022/06/07 02:01:45;;;;;;;6.80;6.20;;;;;;;15.72;100.00;99502.41;5007184;28;20058;-53
2022/06/07 02:04:29;;;;;;;7.68;6.97;;;;;;;15.47;100.00;99501.91;5006801;28;20038;-53
2022/06/07 02:07:15;;;;;;;7.72;7.03;;;;;;;15.28;100.00;99492.28;5003610;28;20061;-53
2022/06/07 02:09:59;;;;;;;6.57;5.97;;;;;;;15.32;100.00;99501.75;5003898;28;20056;-53
2022/06/07 02:12:49;;;;;;;7.13;5.82;;;;;;;15.36;100.00;99494.53;5002317;28;20076;-53
2022/06/07 02:15:33;;;;;;;7.85;6.80;;;;;;;15.29;100.00;99503.69;5006311;28;20583;-54
2022/06/07 02:18:17;;;;;;;6.65;5.95;;;;;;;15.32;100.00;99498.25;5004799;28;20493;-53
2022/06/07 02:21:09;;;;;;;8.68;7.78;;;;;;;15.20;100.00;99489.13;5003633;28;20129;-54
2022/06/07 02:23:55;;;;;;;9.15;8.00;;;;;;;15.24;100.00;99485.44;5005007;28;20049;-53
2022/06/07 02:26:43;;;;;;;10.45;9.23;;;;;;;15.26;100.00;99477.44;5004692;28;20050;-53
2022/06/07 02:29:33;;;;;;;9.18;7.65;;;;;;;15.22;100.00;99479.38;5006832;28;20057;-53
2022/06/07 02:32:36;;;;;;;7.88;7.13;;;;;;;15.15;100.00;99484.09;5007001;28;20060;-53
2022/06/07 02:35:20;;;;;;;7.53;6.75;;;;;;;15.14;100.00;99486.81;5008629;28;20072;-53
2022/06/07 02:38:07;;;;;;;7.65;6.20;;;;;;;15.05;100.00;99488.13;5008324;28;20545;-53
2022/06/07 02:40:53;;;;;;;9.48;6.78;;;;;;;15.01;100.00;99480.41;5008115;28;20604;-53
2022/06/07 02:43:37;;;;;;;6.10;5.50;;;;;;;15.01;100.00;99477.78;5007082;28;20058;-53
2022/06/07 02:46:22;;;;;;;10.18;7.20;;;;;;;14.93;100.00;99475.53;5007551;28;20053;-53
2022/06/07 02:49:07;;;;;;;8.82;6.70;;;;;;;14.88;100.00;99481.03;5005196;28;20049;-53
2022/06/07 02:51:53;;;;;;;7.65;5.93;;;;;;;14.92;100.00;99479.94;5007459;28;20473;-53
2022/06/07 02:54:38;;;;;;;7.35;6.32;;;;;;;14.84;100.00;99482.09;5006959;28;20062;-53
2022/06/07 02:57:27;;;;;;;6.90;6.30;;;;;;;14.92;100.00;99476.47;5022195;28;20061;-53
2022/06/07 03:00:15;;;;;;;8.45;6.60;;;;;;;14.90;100.00;99473.03;5010682;28;20100;-53
2022/06/07 03:03:00;;;;;;;7.30;6.57;;;;;;;14.77;100.00;99464.00;5008895;28;20053;-53
2022/06/07 03:05:45;;;;;;;7.22;6.53;;;;;;;14.83;100.00;99466.34;5015959;28;20057;-53
2022/06/07 03:08:30;;;;;;;9.20;7.20;;;;;;;14.82;100.00;99459.34;5014204;28;20046;-53
2022/06/07 03:11:18;;;;;;;7.53;6.82;;;;;;;14.95;100.00;99469.25;5010048;28;20136;-53
2022/06/07 03:14:05;;;;;;;9.32;6.82;;;;;;;14.95;100.00;99466.63;5007481;28;20049;-54
2022/06/07 03:16:50;;;;;;;10.18;9.18;;;;;;;14.86;100.00;99468.84;5006254;28;20100;-53
2022/06/07 03:19:35;;;;;;;7.53;6.85;;;;;;;15.07;100.00;99466.94;5018272;28;20108;-53
2022/06/07 03:22:21;;;;;;;7.40;6.63;;;;;;;15.08;100.00;99458.97;5005539;28;20056;-53
2022/06/07 03:25:07;;;;;;;7.50;6.80;;;;;;;15.17;100.00;99455.00;5014688;28;20052;-53
2022/06/07 03:27:54;;;;;;;8.25;7.25;;;;;;;15.27;100.00;99461.53;5007904;28;20061;-53
2022/06/07 03:30:41;;;;;;;10.95;8.32;;;;;;;15.45;100.00;99467.69;5005633;28;20042;-53
2022/06/07 03:33:29;;;;;;;8.88;8.05;;;;;;;15.75;100.00;99477.63;5016447;28;20100;-53
2022/06/07 03:36:17;;;;;;;9.02;7.93;;;;;;;15.82;100.00;99471.94;5011262;28;20654;-53
2022/06/07 03:39:09;;;;;;;10.05;8.98;;;;;;;15.94;100.00;99475.75;5010604;28;20054;-53
2022/06/07 03:42:10;;;;;;;10.07;8.95;;;;;;;16.12;100.00;99468.66;5020714;28;20053;-53
2022/06/07 03:44:54;;;;;;;10.13;9.13;;;;;;;16.26;100.00;99463.47;5008835;28;20061;-53
2022/06/07 03:47:39;;;;;;;8.82;8.02;;;;;;;16.43;100.00;99464.34;5009943;28;20053;-53
2022/06/07 03:50:25;;;;;;;8.07;7.20;;;;;;;16.36;100.00;99461.19;5004789;28;20037;-54
2022/06/07 03:53:11;;;;;;;9.63;8.70;;;;;;;16.32;100.00;99455.22;5010558;28;20045;-53
2022/06/07 03:55:59;;;;;;;9.20;8.25;;;;;;;16.53;100.00;99460.25;5004821;28;20116;-53
2022/06/07 03:58:52;;;;;;;9.90;8.63;;;;;;;16.58;100.00;99460.88;5025002;28;20048;-53
2022/06/07 04:01:37;;;;;;;9.43;8.50;;;;;;;16.43;100.00;99461.72;5006453;28;20041;-55
2022/06/07 04:04:22;;;;;;;9.68;8.60;;;;;;;16.51;100.00;99464.78;5015501;28;20049;-54
2022/06/07 04:10:16;;;;;;;9.55;8.55;;;;;;;16.55;100.00;99463.69;5004169;28;20053;-53
2022/06/07 04:13:07;;;;;;;9.75;8.75;;;;;;;16.53;100.00;99468.19;5012669;28;20041;-53
2022/06/07 04:15:53;;;;;;;8.82;7.93;;;;;;;16.78;100.00;99468.59;5010742;28;20045;-53
2022/06/07 04:18:39;;;;;;;10.13;7.20;;;;;;;16.71;100.00;99467.19;5024530;28;20081;-55
2022/06/07 04:21:24;;;;;;;9.30;8.50;;;;;;;17.14;100.00;99464.78;5012877;28;20489;-53
2022/06/07 04:24:11;;;;;;;10.13;7.93;;;;;;;17.36;100.00;99468.84;5003244;28;20052;-54
2022/06/07 04:26:57;;;;;;;9.60;8.57;;;;;;;17.64;100.00;99468.06;5004731;28;20469;-53
2022/06/07 04:29:43;;;;;;;9.82;8.93;;;;;;;18.05;100.00;99465.59;5000710;28;20050;-54
2022/06/07 04:32:29;;;;;;;9.70;8.80;;;;;;;18.16;100.00;99462.28;5004151;28;20295;-54
2022/06/07 04:35:18;;;;;;;10.02;9.00;;;;;;;19.08;100.00;99454.69;5018687;28;20042;-56
2022/06/07 04:38:06;;;;;;;11.03;9.20;;;;;;;19.62;100.00;99456.38;5006042;28;20049;-53
2022/06/07 04:40:57;;;;;;;9.60;8.35;;;;;;;20.10;100.00;99466.44;5004665;28;20313;-54
2022/06/07 04:43:43;;;;;;;8.80;8.00;;;;;;;20.29;100.00;99466.84;5003756;28;20050;-54
2022/06/07 04:46:28;;;;;;;12.13;10.73;;;;;;;19.46;100.00;99474.31;5005062;28;20069;-54
2022/06/07 04:49:17;;;;;;;10.00;9.02;;;;;;;19.15;100.00;99479.84;5004227;28;20471;-54
2022/06/07 04:52:02;;;;;;;9.18;8.38;;;;;;;18.99;100.00;99479.16;5003782;28;20046;-53
2022/06/07 04:54:53;;;;;;;11.18;9.00;;;;;;;19.21;100.00;99468.00;5004652;28;20053;-53
2022/06/07 04:57:40;;;;;;;9.23;7.90;;;;;;;20.70;100.00;99471.03;4994165;28;20594;-53
2022/06/07 05:00:26;;;;;;;8.50;7.60;;;;;;;20.56;100.00;99480.03;5017811;28;20046;-53
2022/06/07 05:03:16;;;;;;;8.77;7.90;;;;;;;20.89;100.00;99475.88;5007525;28;20073;-53
2022/06/07 05:06:02;;;;;;;9.63;7.97;;;;;;;20.87;100.00;99480.50;5005960;28;20045;-53
2022/06/07 05:08:47;;;;;;;9.63;7.97;;;;;;;20.38;100.00;99476.00;5008442;28;20141;-53
2022/06/07 05:11:32;;;;;;;13.30;9.52;;;;;;;20.71;100.00;99467.44;5009601;28;20038;-53
2022/06/07 05:14:19;;;;;;;8.35;6.88;;;;;;;21.41;100.00;99464.06;5006705;28;20054;-53
2022/06/07 05:17:05;;;;;;;9.57;8.00;;;;;;;21.13;100.00;99455.47;5007027;28;20054;-56
2022/06/07 05:19:53;;;;;;;8.15;6.95;;;;;;;21.16;100.00;99465.88;5005987;28;20076;-54
2022/06/07 05:22:37;;;;;;;7.80;7.00;;;;;;;21.34;100.00;99460.97;5012450;28;20081;-54
2022/06/07 05:25:24;;;;;;;9.45;8.00;;;;;;;21.07;100.00;99458.56;5007282;28;20042;-54
2022/06/07 05:28:11;;;;;;;8.70;7.43;;;;;;;21.32;100.00;99457.59;5004189;28;20049;-54
2022/06/07 05:30:56;;;;;;;8.45;7.57;;;;;;;22.29;100.00;99475.06;5003514;28;20081;-54
2022/06/07 05:33:48;;;;;;;9.63;8.40;;;;;;;22.04;100.00;99488.59;5004599;28;20057;-54
2022/06/07 05:36:33;;;;;;;9.30;8.00;;;;;;;22.38;100.00;99490.34;5008773;28;20049;-54
2022/06/07 05:39:25;;;;;;;12.13;8.85;;;;;;;21.86;100.00;99489.03;5009221;28;20053;-54
2022/06/07 05:42:14;;;;;;;7.97;7.18;;;;;;;22.05;100.00;99482.28;5009657;28;20037;-56
2022/06/07 05:44:59;;;;;;;7.57;6.82;;;;;;;22.41;100.00;99497.25;5013492;28;20683;-57
2022/06/07 05:47:45;;;;;;;7.53;6.47;;;;;;;22.23;100.00;99496.91;5010772;28;20113;-55
2022/06/07 05:50:33;;;;;;;7.95;6.65;;;;;;;23.16;100.00;99496.56;5012455;28;20123;-55
2022/06/07 05:53:21;;;;;;;8.82;7.43;;;;;;;22.72;100.00;99493.00;5022413;28;20050;-55
2022/06/07 05:56:11;;;;;;;7.78;6.47;;;;;;;23.36;100.00;99494.91;5010674;28;20108;-55
2022/06/07 05:58:57;;;;;;;8.75;6.63;;;;;;;23.10;100.00;99495.25;5007089;28;20061;-55
2022/06/07 06:01:42;;;;;;;9.85;7.40;;;;;;;23.03;100.00;99493.22;5011077;28;20108;-55
2022/06/07 06:04:27;;;;;;;9.43;8.52;;;;;;;23.30;100.00;99488.28;5006105;28;20050;-56
2022/06/07 06:07:13;;;;;;;8.60;6.95;;;;;;;23.67;100.00;99482.50;5012331;28;20045;-55
2022/06/07 06:10:21;;;;;;;;;;;;;;;23.10;100.00;99476.53;5008445;28;20538;-56
2022/06/07 06:13:12;;;;;;;9.18;7.05;;;;;;;23.68;100.00;99476.22;5010827;28;20059;-56
2022/06/07 06:16:01;;;;;;;7.10;6.50;;;;;;;23.51;100.00;99477.59;5011849;28;20103;-56
2022/06/07 06:18:56;;;;;;;7.15;6.45;;;;;;;24.27;100.00;99472.06;5009641;28;20132;-56
2022/06/07 06:21:48;;;;;;;8.32;7.47;;;;;;;24.63;100.00;99468.00;5007850;28;20477;-56
2022/06/07 06:24:34;;;;;;;6.95;6.03;;;;;;;23.97;100.00;99470.22;5024390;28;20057;-56
2022/06/07 06:27:18;;;;;;;8.82;7.93;;;;;;;23.67;100.00;99468.31;5009732;28;20049;-56
2022/06/07 06:30:07;;;;;;;8.13;6.50;;;;;;;24.08;100.00;99474.63;5014889;28;20046;-57
2022/06/07 06:32:55;;;;;;;7.20;6.47;;;;;;;24.76;100.00;99466.91;5008329;28;20095;-57
2022/06/07 06:35:53;;;;;;;6.22;5.55;;;;;;;24.88;100.00;99465.81;5020945;28;20060;-56
2022/06/07 06:38:43;;;;;;;8.95;7.88;;;;;;;24.95;100.00;99469.63;5007517;28;20057;-56
2022/06/07 06:41:30;;;;;;;10.70;8.25;;;;;;;24.84;100.00;99465.25;5007075;28;20743;-59
2022/06/07 06:44:15;;;;;;;9.55;6.72;;;;;;;25.02;100.00;99448.47;5012890;28;20038;-53
2022/06/07 06:47:03;;;;;;;10.05;7.30;;;;;;;25.24;100.00;99458.13;5011355;28;20909;-58
2022/06/07 06:49:48;;;;;;;11.18;7.45;;;;;;;25.27;100.00;99455.16;5008025;28;20057;-58
2022/06/07 06:52:35;;;;;;;9.63;7.93;;;;;;;25.85;100.00;99461.34;5015836;28;20038;-59
2022/06/07 06:55:21;;;;;;;11.75;7.30;;;;;;;25.94;100.00;99458.81;5006921;28;20659;-58
2022/06/07 06:58:09;;;;;;;9.02;6.60;;;;;;;26.20;100.00;99459.84;5009272;28;20042;-56
2022/06/07 07:01:09;;;;;;;6.78;6.07;;;;;;;26.54;100.00;99464.66;5005478;28;20111;-58
2022/06/07 07:03:53;;;;;;;7.03;6.15;;;;;;;26.23;100.00;99456.03;5007054;28;20393;-57
2022/06/07 07:06:41;;;;;;;6.82;5.57;;;;;;;26.36;100.00;99464.59;5002962;28;20054;-58
2022/06/07 07:09:28;;;;;;;7.90;7.00;;;;;;;26.44;100.00;99463.84;5022338;28;20053;-59
2022/06/07 07:12:16;;;;;;;7.03;5.20;;;;;;;26.97;100.00;99453.25;5016328;28;20081;-58
2022/06/07 07:15:15;;;;;;;7.80;7.00;;;;;;;25.47;100.00;99453.31;5013538;28;20050;-58
2022/06/07 07:18:05;;;;;;;5.88;5.32;;;;;;;27.55;100.00;99451.97;5012027;28;20049;-58
2022/06/07 07:20:57;;;;;;;9.15;5.45;;;;;;;27.27;100.00;99456.63;5014280;28;20100;-58
2022/06/07 07:23:44;;;;;;;4.80;4.35;;;;;;;26.36;100.00;99459.22;5008800;28;20042;-58
2022/06/07 07:26:30;;;;;;;5.50;4.15;;;;;;;26.72;100.00;99462.06;5003675;28;20053;-58
2022/06/07 07:29:18;;;;;;;3.88;3.58;;;;;;;26.89;100.00;99466.59;5014047;28;20374;-58
2022/06/07 07:32:03;;;;;;;5.95;3.45;;;;;;;27.77;100.00;99471.34;5010975;28;20408;-59
2022/06/07 07:34:55;;;;;;;4.43;4.03;;;;;;;27.86;100.00;99476.63;5025449;28;20077;-58
2022/06/07 07:37:42;;;;;;;5.80;4.32;;;;;;;28.78;100.00;99463.50;5009797;28;20069;-59
2022/06/07 07:40:31;;;;;;;3.45;3.15;;;;;;;28.19;100.00;99466.06;5015123;28;20060;-58
2022/06/07 07:43:18;;;;;;;4.20;3.50;;;;;;;28.25;96.15;99467.28;5010733;28;20046;-59
2022/06/07 07:46:03;;;;;;;4.38;3.97;;;;;;;26.96;100.00;99469.53;5014723;28;20053;-59
2022/06/07 07:48:48;;;;;;;4.10;3.75;;;;;;;28.28;98.25;99454.34;5013038;28;20049;-58
2022/06/07 07:51:36;;;;;;;3.90;3.38;;;;;;;27.34;100.00;99459.53;5010952;28;20042;-59
2022/06/07 07:54:23;;;;;;;6.32;3.70;;;;;;;26.82;100.00;99462.00;5010493;28;20049;-59
2022/06/07 07:57:09;;;;;;;4.10;3.60;;;;;;;27.37;100.00;99461.91;5012882;28;20512;-59
2022/06/07 07:59:56;;;;;;;3.45;2.88;;;;;;;28.17;98.71;99465.38;5004376;28;20050;-59
2022/06/07 08:02:42;;;;;;;4.93;4.43;;;;;;;28.37;96.26;99463.28;5014668;28;20045;-58
2022/06/07 08:05:41;;;;;;;4.38;3.40;;;;;;;27.63;96.48;99462.81;5008415;28;20465;-59
2022/06/07 08:08:25;;;;;;;2.63;2.42;;;;;;;29.18;89.54;99457.38;5014662;28;20472;-58
2022/06/07 08:11:10;;;;;;;2.72;2.53;;;;;;;29.30;89.16;99461.44;5013955;28;20420;-58
2022/06/07 08:13:55;;;;;;;3.50;3.03;;;;;;;28.08;93.91;99464.50;5011502;28;20053;-59
2022/06/07 08:16:40;;;;;;;3.78;3.45;;;;;;;28.01;94.05;99466.09;5012670;28;20464;-58
2022/06/07 08:19:26;;;;;;;3.80;3.03;;;;;;;28.67;92.66;99463.81;5013460;28;20465;-58
2022/06/07 08:22:11;;;;;;;3.10;2.80;;;;;;;29.16;90.04;99454.00;5015853;28;20053;-58
2022/06/07 08:24:56;;;;;;;3.85;3.50;;;;;;;28.43;93.38;99460.81;5010458;28;20623;-58
2022/06/07 08:27:42;;;;;;;4.18;3.78;;;;;;;27.48;95.84;99454.44;5014833;28;20116;-59
2022/06/07 08:30:26;;;;;;;4.60;2.65;;;;;;;28.27;91.75;99462.56;5012509;28;20046;-59
2022/06/07 08:39:21;;;;;;;3.88;3.58;;;;;;;28.59;90.12;99441.19;5007747;28;20046;-60
2022/06/07 08:42:19;;;;;;;2.78;2.58;;;;;;;28.66;90.71;99433.31;5008202;28;20116;-60
2022/06/07 08:45:16;;;;;;;4.45;4.05;;;;;;;28.05;92.55;99447.81;5005410;28;20489;-59
2022/06/07 08:48:05;;;;;;;3.10;2.83;;;;;;;28.80;90.70;99437.25;5008667;28;20672;-59
2022/06/07 08:51:25;;;;;;;3.05;2.30;;;;;;;30.24;84.24;99438.44;5006676;28;20077;-59
2022/06/07 08:54:18;;;;;;;2.10;1.90;;;;;;;30.90;80.94;99436.31;5009059;28;20087;-60
2022/06/07 08:57:23;;;;;;;2.35;1.85;;;;;;;29.82;76.84;99433.28;5013418;28;20448;-59
2022/06/07 09:00:22;;;;;;;2.35;1.67;;;;;;;29.55;81.21;99429.09;5010953;28;20746;-59
2022/06/07 09:03:17;;;;;;;1.88;1.65;;;;;;;29.67;82.75;99424.19;5016538;28;20034;-59
2022/06/07 09:06:04;;;;;;;3.05;1.48;;;;;;;29.44;78.46;99434.81;5013957;28;20109;-59
2022/06/07 09:08:57;;;;;;;1.50;1.30;;;;;;;28.47;79.98;99430.88;5009456;28;20050;-60
2022/06/07 09:12:09;;;;;;;2.22;1.10;;;;;;;28.45;77.02;99427.53;5009795;28;20050;-60
2022/06/07 09:15:15;;;;;;;1.30;1.20;;;;;;;29.56;76.51;99422.66;5011772;28;20061;-59
2022/06/07 09:18:01;;;;;;;1.30;1.20;;;;;;;29.98;71.02;99416.22;5012423;28;20473;-58
2022/06/07 09:20:50;;;;;;;1.00;1.00;;;;;;;29.58;67.30;99415.25;5009110;28;20054;-59
2022/06/07 09:23:45;;;;;;;1.85;0.93;;;;;;;29.54;66.06;99419.28;5009864;28;20042;-59
2022/06/07 09:26:36;;;;;;;1.73;0.85;;;;;;;30.57;62.58;99413.16;5013598;28;20053;-59
2022/06/07 09:29:23;;;;;;;1.42;0.77;;;;;;;31.28;55.41;99408.50;5013266;28;20444;-59
2022/06/07 09:32:18;;;;;;;1.27;0.80;;;;;;;29.57;57.41;99410.84;5014950;28;20056;-59
2022/06/07 09:35:08;;;;;;;3.35;1.67;;;;;;;29.56;65.94;99412.72;5012686;28;20042;-59
2022/06/07 09:37:58;;;;;;;2.75;2.03;;;;;;;29.37;68.83;99409.53;5013793;28;20038;-58
2022/06/07 09:41:36;;;;;;;2.25;2.05;;;;;;;29.79;65.99;99412.03;5009976;28;20068;-59
2022/06/07 09:44:23;;;;;;;4.18;2.05;;;;;;;29.45;68.70;99393.34;5007501;28;20103;-59
2022/06/07 09:47:16;;;;;;;2.13;2.03;;;;;;;30.19;65.88;99399.47;5008356;28;20501;-59
2022/06/07 09:50:30;;;;;;;15.23;2.50;;;;;;;30.73;63.10;99395.00;5009148;28;20088;-60
2022/06/07 09:53:16;;;;;;;2.03;1.92;;;;;;;30.62;62.83;99384.59;5007646;28;20092;-59
2022/06/07 09:56:11;;;;;;;2.75;1.98;;;;;;;31.48;62.36;99382.66;5010926;28;20103;-59
2022/06/07 09:59:13;;;;;;;3.00;1.55;;;;;;;31.83;59.46;99380.28;5010080;28;20050;-59
2022/06/07 10:02:36;;;;;;;2.25;2.15;;;;;;;31.67;55.93;99378.59;5007998;28;20045;-60
2022/06/07 10:05:41;;;;;;;2.10;1.90;;;;;;;31.42;59.18;99380.69;5010481;28;20042;-60
2022/06/07 10:08:56;;;;;;;2.08;1.88;;;;;;;30.90;60.35;99368.72;5010753;28;20038;-60
2022/06/07 10:11:52;;;;;;;1.65;1.55;;;;;;;30.32;62.41;99377.31;5009413;28;20061;-60
2022/06/07 10:14:45;;;;;;;1.40;1.30;;;;;;;28.67;63.53;99367.66;5006909;28;20076;-60
2022/06/07 10:17:49;;;;;;;1.77;1.40;;;;;;;27.86;66.27;99379.75;5009775;28;20049;-60
2022/06/07 10:20:41;;;;;;;4.03;1.77;;;;;;;26.94;67.84;99381.03;5011767;28;20049;-59
2022/06/07 10:23:35;;;;;;;3.25;1.35;;;;;;;27.15;68.99;99386.09;5012034;28;20605;-59
2022/06/07 10:26:29;;;;;;;1.85;1.75;;;;;;;26.33;68.80;99374.47;5012179;28;20045;-60
2022/06/07 10:29:47;;;;;;;1.58;1.48;;;;;;;25.85;72.91;99372.84;5011436;28;20140;-59
2022/06/07 10:32:31;;;;;;;1.67;1.58;;;;;;;25.86;74.42;99368.31;4973230;28;20129;-57
2022/06/07 10:35:23;;;;;;;1.30;1.20;;;;;;;26.15;72.34;99362.00;5008167;28;20049;-55
2022/06/07 10:38:39;;;;;;;1.55;1.27;;;;;;;25.94;73.18;99367.59;5007854;28;20049;-59
2022/06/07 10:41:44;;;;;;;1.45;1.15;;;;;;;27.08;67.56;99376.94;5007691;28;20128;-58
2022/06/07 10:44:41;;;;;;;1.65;1.30;;;;;;;29.31;63.91;99360.69;5005630;28;20393;-59
2022/06/07 10:47:30;;;;;;;1.50;1.40;;;;;;;27.32;62.98;99364.75;5006931;28;20038;-60
2022/06/07 10:50:27;;;;;;;2.17;1.80;;;;;;;27.56;64.32;99356.00;5007741;28;20080;-59
2022/06/07 10:53:20;;;;;;;2.03;1.25;;;;;;;27.69;60.71;99370.72;5005063;28;20054;-59
2022/06/07 10:56:27;;;;;;;1.10;1.00;;;;;;;28.36;56.88;99359.28;5006689;28;20054;-60
2022/06/07 10:59:20;;;;;;;0.60;0.55;;;;;;;29.02;55.60;99354.91;5014016;28;20045;-59
2022/06/07 11:02:24;;;;;;;1.58;1.00;;;;;;;28.85;60.32;99356.72;5012928;28;20042;-59
2022/06/07 11:12:10;;;;;;;2.78;2.28;;;;;;;28.71;56.10;99339.38;5013344;28;20053;-59
2022/06/07 11:15:10;;;;;;;1.67;0.82;;;;;;;29.37;54.55;99344.81;5014621;28;20056;-59
2022/06/07 11:18:05;;;;;;;0.77;0.55;;;;;;;29.31;49.77;99341.78;5012922;28;20175;-59
2022/06/07 11:21:10;;;;;;;1.52;0.40;;;;;;;29.88;50.49;99342.72;5012659;28;20107;-60
2022/06/07 11:24:04;;;;;;;0.82;0.60;;;;;;;30.28;49.92;99342.56;5008811;28;20457;-59
2022/06/07 11:26:52;;;;;;;0.47;0.30;;;;;;;30.94;41.67;99336.81;5014696;28;20056;-61
2022/06/07 11:29:36;;;;;;;0.65;0.40;;;;;;;29.51;43.75;99333.31;5010109;28;20049;-60
2022/06/07 11:32:48;;;;;;;1.77;0.40;;;;;;;29.80;46.36;99335.47;5008548;28;20057;-59
2022/06/07 11:35:48;;;;;;;0.85;0.40;;;;;;;29.54;49.36;99332.97;5010207;28;20045;-59
2022/06/07 11:38:35;;;;;;;0.85;0.60;;;;;;;28.98;46.12;99332.81;5008090;28;20042;-61
2022/06/07 11:41:37;;;;;;;0.98;0.57;;;;;;;29.22;45.87;99328.50;5011912;28;20083;-60
2022/06/07 11:44:42;;;;;;;3.35;0.63;;;;;;;28.82;44.49;99319.34;5007693;28;20640;-59
2022/06/07 11:47:35;;;;;;;0.90;0.52;;;;;;;29.18;46.20;99322.56;5007848;28;20053;-59
2022/06/07 11:50:38;;;;;;;3.08;0.90;;;;;;;29.98;44.20;99309.09;5007864;28;20057;-60
2022/06/07 11:53:31;;;;;;;1.20;0.65;;;;;;;30.48;46.00;99312.41;5010530;28;20065;-60
2022/06/07 11:56:33;;;;;;;0.73;0.45;;;;;;;30.01;45.20;99303.34;5005652;28;20046;-60
2022/06/07 11:59:18;;;;;;;;;;;;;;;28.96;48.39;99304.38;5007021;28;20060;-60
2022/06/07 12:02:02;;;;;;;1.00;0.52;;;;;;;29.78;44.73;99300.56;5008650;28;20513;-60
2022/06/07 12:04:48;;;;;;;1.17;0.70;;;;;;;29.86;47.63;99299.69;5007633;28;20070;-60
2022/06/07 12:07:47;;;;;;;0.88;0.55;;;;;;;30.55;47.33;99293.63;5009287;28;20478;-60
2022/06/07 12:10:35;;;;;;;0.88;0.60;;;;;;;30.77;44.67;99289.28;5005866;28;20053;-60
2022/06/07 12:16:31;;;;;;;0.90;0.50;;;;;;;30.20;46.45;99285.91;5007795;28;20684;-60
2022/06/07 12:19:26;;;;;;;3.38;1.00;;;;;;;30.74;48.10;99277.78;5007621;28;20061;-60
2022/06/07 12:22:17;;;;;;;1.60;1.05;;;;;;;30.16;47.85;99281.84;5011197;28;20061;-60
2022/06/07 12:25:19;;;;;;;1.20;1.10;;;;;;;29.88;50.53;99272.53;5010194;28;20052;-60
2022/06/07 12:28:04;;;;;;;2.38;0.88;;;;;;;29.59;50.67;99280.19;5010847;28;20062;-60
2022/06/07 12:30:48;;;;;;;3.10;1.00;;;;;;;29.72;50.36;99276.97;5010832;28;20507;-60
2022/06/07 12:33:33;;;;;;;1.60;0.95;;;;;;;29.63;50.77;99279.88;5010703;28;20048;-59
2022/06/07 12:36:22;;;;;;;0.70;0.70;;;;;;;29.57;52.56;99278.69;5010480;28;20108;-60
2022/06/07 12:39:13;;;;;;;1.08;0.93;;;;;;;29.65;51.09;99276.00;5008531;28;20091;-60
2022/06/07 12:42:03;;;;;;;1.85;1.10;;;;;;;29.06;52.61;99275.44;5009334;28;20038;-59
2022/06/07 12:45:17;;;;;;;1.30;1.20;;;;;;;28.59;54.13;99274.19;5012703;28;20042;-60
2022/06/07 12:48:15;;;;;;;1.92;1.10;;;;;;;28.49;54.80;99280.75;5008052;28;20116;-60
2022/06/07 12:51:00;;;;;;;3.33;1.40;;;;;;;28.15;55.40;99285.19;5008188;28;20476;-59
2022/06/07 12:53:47;;;;;;;3.53;1.10;;;;;;;27.34;57.49;99284.78;5007453;28;20432;-60
2022/06/07 12:56:37;;;;;;;3.00;1.20;;;;;;;27.08;58.35;99284.75;5011380;28;20041;-59
2022/06/07 12:59:41;;;;;;;2.58;1.45;;;;;;;27.54;57.20;99274.66;5011443;28;20715;-59
2022/06/07 13:02:39;;;;;;;2.92;1.30;;;;;;;27.25;59.19;99275.81;5006840;28;20145;-58
2022/06/07 13:05:27;;;;;;;2.33;1.33;;;;;;;27.02;59.78;99280.84;5009979;28;20050;-58
2022/06/07 13:08:17;;;;;;;3.17;0.90;;;;;;;26.94;59.70;99286.13;5006178;28;20172;-58
2022/06/07 13:11:06;;;;;;;1.10;0.95;;;;;;;26.64;61.44;99279.34;5009458;28;20046;-58
2022/06/07 13:13:51;;;;;;;1.33;0.93;;;;;;;26.46;59.47;99282.84;5006730;28;20052;-58
2022/06/07 13:16:42;;;;;;;2.05;1.13;;;;;;;26.46;61.86;99292.75;5008319;28;20041;-58
2022/06/07 13:19:28;;;;;;;0.82;0.70;;;;;;;26.40;62.12;99287.97;5010643;28;20054;-58
2022/06/07 13:22:16;;;;;;;2.30;1.05;;;;;;;25.91;63.55;99288.25;5009106;28;20053;-59
2022/06/07 13:25:20;;;;;;;1.27;1.00;;;;;;;25.63;65.03;99296.25;5011670;28;20425;-58
2022/06/07 13:28:10;;;;;;;2.70;1.55;;;;;;;24.65;65.80;99301.88;5013256;28;20096;-58
2022/06/07 13:30:55;;;;;;;3.08;1.05;;;;;;;24.66;65.81;99303.56;5014066;28;20140;-57
2022/06/07 13:33:40;;;;;;;1.35;0.90;;;;;;;24.44;68.45;99310.06;5008842;28;20042;-58
2022/06/07 13:37:06;;;;;;;1.35;1.02;;;;;;;24.48;66.04;99309.63;5011046;28;20054;-58
2022/06/07 13:40:15;;;;;;;3.78;0.93;;;;;;;24.40;66.56;99312.09;5006045;28;20046;-57
2022/06/07 13:43:17;;;;;;;2.72;1.00;;;;;;;23.99;68.33;99323.84;5008232;28;20096;-56